createdAt,value
2018-03-25T00:02:21.567Z,39.28
2018-03-25T00:04:49.152Z,35.10
2018-03-25T00:07:17.490Z,44.25
2018-03-25T00:09:45.071Z,37.70
2018-03-25T00:12:12.618Z,34.17
2018-03-25T00:14:40.204Z,33.85
2018-03-25T00:17:07.744Z,30.33
2018-03-25T00:19:35.341Z,31.08
2018-03-25T00:22:02.896Z,32.53
2018-03-25T00:24:30.488Z,34.47
2018-03-25T00:26:58.040Z,33.88
2018-03-25T00:29:26.400Z,29.67
2018-03-25T00:31:53.955Z,37.33
2018-03-25T00:34:21.559Z,28.58
2018-03-25T00:36:49.122Z,32.90
2018-03-25T00:39:16.726Z,30.25
2018-03-25T00:41:44.271Z,31.65
2018-03-25T00:44:11.869Z,31.23
2018-03-25T00:46:40.179Z,29.55
2018-03-25T00:49:07.772Z,33.72
2018-03-25T00:51:35.316Z,31.42
2018-03-25T00:54:02.900Z,35.00
2018-03-25T00:56:30.442Z,30.10
2018-03-25T00:58:58.028Z,33.10
2018-03-25T01:01:25.587Z,29.75
2018-03-25T01:03:53.184Z,33.20
2018-03-25T01:06:20.735Z,32.95
2018-03-25T01:08:49.109Z,30.37
2018-03-25T01:11:17.432Z,29.67
2018-03-25T01:13:45.037Z,39.13
2018-03-25T01:16:12.583Z,28.15
2018-03-25T01:18:41.690Z,32.83
2018-03-25T01:21:09.235Z,30.42
2018-03-25T01:23:36.830Z,31.17
2018-03-25T01:26:05.140Z,27.35
2018-03-25T01:28:32.743Z,31.27
2018-03-25T01:31:00.296Z,30.83
2018-03-25T01:33:27.880Z,31.45
2018-03-25T01:35:56.240Z,31.00
2018-03-25T01:38:23.824Z,31.92
2018-03-25T01:40:52.133Z,31.35
2018-03-25T01:43:19.729Z,33.67
2018-03-25T01:45:47.319Z,34.20
2018-03-25T01:48:15.635Z,32.58
2018-03-25T01:50:43.243Z,29.80
2018-03-25T01:53:10.786Z,33.88
2018-03-25T01:55:39.891Z,30.67
2018-03-25T01:58:08.939Z,30.48
2018-03-25T02:00:36.530Z,32.88
2018-03-25T02:03:04.065Z,32.20
2018-03-25T02:05:31.659Z,32.28
2018-03-25T02:07:59.202Z,31.62
2018-03-25T02:10:26.784Z,25.08
2018-03-25T02:12:54.323Z,31.50
2018-03-25T02:15:21.906Z,30.10
2018-03-25T02:17:49.450Z,32.47
2018-03-25T02:20:23.747Z,33.72
2018-03-25T02:22:51.296Z,32.67
2018-03-25T02:25:18.893Z,31.37
2018-03-25T02:27:46.444Z,33.33
2018-03-25T02:30:14.059Z,29.73
2018-03-25T02:32:41.611Z,30.00
2018-03-25T02:35:09.916Z,33.00
2018-03-25T02:37:37.522Z,28.08
2018-03-25T02:40:05.065Z,39.80
2018-03-25T02:42:32.675Z,37.83
2018-03-25T02:45:00.280Z,30.20
2018-03-25T02:47:27.881Z,30.45
2018-03-25T02:49:56.254Z,33.75
2018-03-25T02:52:23.800Z,32.35
2018-03-25T02:54:51.360Z,29.05
2018-03-25T02:57:18.947Z,33.35
2018-03-25T02:59:47.258Z,31.70
2018-03-25T03:02:14.840Z,26.20
2018-03-25T03:04:42.392Z,32.03
2018-03-25T03:07:09.989Z,31.67
2018-03-25T03:09:37.535Z,28.00
2018-03-25T03:12:05.133Z,29.35
2018-03-25T03:14:32.681Z,32.55
2018-03-25T03:17:01.028Z,29.63
2018-03-25T03:19:28.576Z,32.80
2018-03-25T03:21:56.180Z,31.35
2018-03-25T03:24:24.484Z,34.95
2018-03-25T03:26:52.084Z,30.80
2018-03-25T03:29:19.633Z,31.40
2018-03-25T03:31:47.221Z,30.98
2018-03-25T03:34:14.770Z,33.08
2018-03-25T03:36:42.360Z,31.17
2018-03-25T03:39:10.664Z,31.52
2018-03-25T03:41:38.252Z,30.17
2018-03-25T03:44:05.805Z,25.73
2018-03-25T03:46:33.403Z,28.67
2018-03-25T03:49:00.956Z,29.17
2018-03-25T03:51:28.548Z,29.95
2018-03-25T03:53:56.093Z,29.48
2018-03-25T03:56:24.452Z,30.88
2018-03-25T03:58:51.992Z,33.13
2018-03-25T04:01:19.590Z,32.83
2018-03-25T04:03:47.901Z,37.70
2018-03-25T04:06:15.493Z,32.00
2018-03-25T04:08:43.040Z,35.42
2018-03-25T04:11:10.628Z,29.48
2018-03-25T04:13:38.168Z,31.48
2018-03-25T04:16:05.760Z,33.67
2018-03-25T04:18:33.301Z,32.75
2018-03-25T04:21:00.902Z,32.47
2018-03-25T04:23:28.462Z,30.15
2018-03-25T04:25:56.062Z,33.13
2018-03-25T04:28:23.645Z,32.72
2018-03-25T04:30:51.243Z,30.60
2018-03-25T04:33:18.800Z,27.83
2018-03-25T04:35:47.156Z,35.17
2018-03-25T04:38:15.465Z,29.60
2018-03-25T04:40:43.051Z,31.42
2018-03-25T04:43:10.613Z,36.90
2018-03-25T04:45:38.213Z,34.67
2018-03-25T04:48:05.759Z,29.02
2018-03-25T04:50:33.336Z,30.35
2018-03-25T04:53:00.914Z,27.40
2018-03-25T04:55:29.224Z,32.65
2018-03-25T04:57:56.816Z,30.88
2018-03-25T05:00:24.390Z,27.50
2018-03-25T05:02:51.946Z,35.60
2018-03-25T05:05:20.898Z,27.10
2018-03-25T05:07:48.593Z,26.95
2018-03-25T05:10:16.171Z,27.50
2018-03-25T05:12:43.709Z,31.65
2018-03-25T05:15:11.308Z,30.52
2018-03-25T05:17:39.628Z,29.95
2018-03-25T05:20:07.178Z,30.88
2018-03-25T05:22:34.760Z,30.80
2018-03-25T05:25:02.297Z,29.50
2018-03-25T05:27:29.898Z,26.77
2018-03-25T05:29:57.444Z,30.67
2018-03-25T05:32:24.981Z,27.02
2018-03-25T05:34:52.566Z,33.28
2018-03-25T05:37:20.111Z,29.65
2018-03-25T05:39:47.695Z,27.45
2018-03-25T05:42:15.275Z,30.40
2018-03-25T05:44:43.598Z,33.63
2018-03-25T05:47:11.196Z,28.15
2018-03-25T05:49:38.737Z,27.62
2018-03-25T05:52:06.336Z,30.05
2018-03-25T05:54:34.639Z,28.95
2018-03-25T05:57:02.231Z,28.50
2018-03-25T05:59:29.936Z,27.02
2018-03-25T06:01:57.384Z,28.75
2018-03-25T06:04:25.700Z,33.72
2018-03-25T06:06:53.305Z,31.83
2018-03-25T06:09:20.861Z,27.30
2018-03-25T06:11:48.420Z,30.88
2018-03-25T06:14:16.015Z,34.10
2018-03-25T06:16:44.336Z,27.62
2018-03-25T06:19:11.917Z,26.05
2018-03-25T06:21:39.483Z,28.65
2018-03-25T06:24:07.065Z,31.55
2018-03-25T06:26:35.369Z,27.25
2018-03-25T06:29:03.005Z,26.95
2018-03-25T06:31:31.312Z,27.83
2018-03-25T06:33:58.899Z,29.67
2018-03-25T06:36:26.442Z,26.75
2018-03-25T06:38:54.036Z,24.83
2018-03-25T06:41:21.590Z,24.95
2018-03-25T06:43:49.172Z,24.02
2018-03-25T06:46:16.712Z,25.52
2018-03-25T06:48:44.293Z,26.75
2018-03-25T06:51:12.607Z,23.12
2018-03-25T06:53:40.197Z,24.17
2018-03-25T06:56:07.734Z,24.15
2018-03-25T06:58:35.432Z,25.48
2018-03-25T07:01:03.063Z,26.15
2018-03-25T07:03:30.785Z,24.37
2018-03-25T07:05:59.097Z,22.98
2018-03-25T07:08:26.754Z,27.13
2018-03-25T07:10:54.324Z,25.92
2018-03-25T07:13:21.913Z,23.42
2018-03-25T07:15:49.468Z,26.25
2018-03-25T07:18:17.252Z,22.17
2018-03-25T07:20:44.801Z,25.52
2018-03-25T07:23:12.390Z,23.15
2018-03-25T07:25:40.700Z,23.05
2018-03-25T07:28:08.289Z,24.87
2018-03-25T07:30:35.838Z,25.15
2018-03-25T07:33:03.428Z,25.35
2018-03-25T07:35:31.755Z,23.85
2018-03-25T07:37:59.349Z,24.92
2018-03-25T07:40:26.895Z,24.55
2018-03-25T07:42:54.488Z,22.42
2018-03-25T07:45:22.042Z,24.02
2018-03-25T07:47:49.648Z,27.45
2018-03-25T07:50:17.370Z,25.27
2018-03-25T07:52:45.748Z,22.80
2018-03-25T07:55:13.345Z,27.10
2018-03-25T07:57:41.001Z,22.40
2018-03-25T08:00:08.540Z,21.42
2018-03-25T08:02:36.894Z,22.30
2018-03-25T08:05:04.444Z,20.37
2018-03-25T08:07:32.043Z,22.02
2018-03-25T08:10:00.372Z,22.77
2018-03-25T08:12:27.960Z,21.77
2018-03-25T08:14:55.510Z,22.48
2018-03-25T08:17:23.901Z,23.42
2018-03-25T08:19:51.462Z,22.13
2018-03-25T08:22:19.057Z,23.02
2018-03-25T08:24:46.615Z,27.73
2018-03-25T08:27:14.210Z,22.35
2018-03-25T08:29:41.760Z,25.60
2018-03-25T08:32:09.343Z,20.33
2018-03-25T08:34:36.888Z,18.70
2018-03-25T08:37:04.481Z,17.90
2018-03-25T08:39:32.809Z,24.05
2018-03-25T08:42:00.416Z,26.92
2018-03-25T08:44:28.130Z,22.07
2018-03-25T08:46:55.792Z,21.67
2018-03-25T08:49:23.352Z,28.55
2018-03-25T08:51:50.976Z,24.45
2018-03-25T08:54:19.309Z,27.42
2018-03-25T08:56:46.931Z,24.75
2018-03-25T08:59:14.618Z,26.70
2018-03-25T09:01:42.215Z,23.83
2018-03-25T09:04:09.807Z,21.33
2018-03-25T09:06:38.159Z,23.70
2018-03-25T09:09:05.712Z,27.73
2018-03-25T09:11:33.304Z,23.67
2018-03-25T09:14:01.635Z,23.05
2018-03-25T09:16:29.289Z,25.20
2018-03-25T09:18:56.867Z,21.35
2018-03-25T09:21:24.521Z,21.47
2018-03-25T09:23:52.087Z,21.63
2018-03-25T09:26:19.671Z,21.23
2018-03-25T09:28:47.216Z,22.30
2018-03-25T09:31:14.862Z,22.60
2018-03-25T09:33:42.461Z,17.50
2018-03-25T09:36:11.000Z,33.83
2018-03-25T09:38:38.558Z,22.43
2018-03-25T09:41:06.138Z,30.53
2018-03-25T09:43:33.681Z,21.73
2018-03-25T09:46:01.278Z,18.83
2018-03-25T09:48:28.815Z,20.73
2018-03-25T09:50:56.417Z,20.90
2018-03-25T09:53:24.040Z,23.87
2018-03-25T09:55:51.637Z,21.20
2018-03-25T09:58:19.977Z,22.33
2018-03-25T10:00:49.530Z,21.67
2018-03-25T10:03:22.756Z,20.30
2018-03-25T10:05:50.368Z,18.20
2018-03-25T10:08:18.680Z,19.07
2018-03-25T10:10:46.273Z,21.03
2018-03-25T10:13:13.816Z,22.00
2018-03-25T10:15:41.460Z,21.30
2018-03-25T10:18:09.015Z,22.13
2018-03-25T10:20:36.606Z,19.60
2018-03-25T10:23:04.262Z,21.27
2018-03-25T10:25:33.542Z,22.10
2018-03-25T10:28:01.085Z,24.10
2018-03-25T10:30:29.445Z,25.80
2018-03-25T10:32:57.773Z,21.83
2018-03-25T10:35:25.356Z,20.07
2018-03-25T10:37:52.913Z,23.13
2018-03-25T10:40:20.508Z,21.90
2018-03-25T10:42:48.813Z,24.50
2018-03-25T10:45:16.408Z,22.03
2018-03-25T10:47:43.952Z,24.30
2018-03-25T10:50:11.552Z,19.47
2018-03-25T10:52:39.096Z,20.30
2018-03-25T10:55:06.692Z,18.73
2018-03-25T10:57:35.009Z,22.53
2018-03-25T11:00:02.618Z,20.67
2018-03-25T11:02:30.935Z,22.97
2018-03-25T11:04:58.484Z,19.87
2018-03-25T11:07:26.084Z,20.10
2018-03-25T11:09:53.648Z,28.17
2018-03-25T11:12:21.245Z,23.10
2018-03-25T11:14:49.641Z,23.00
2018-03-25T11:17:17.186Z,18.87
2018-03-25T11:19:45.526Z,19.20
2018-03-25T11:22:13.119Z,22.73
2018-03-25T11:24:41.508Z,19.33
2018-03-25T11:27:09.060Z,19.33
2018-03-25T11:29:37.372Z,17.90
2018-03-25T11:32:04.979Z,16.83
2018-03-25T11:34:32.527Z,18.70
2018-03-25T11:37:00.117Z,16.73
2018-03-25T11:39:28.435Z,17.53
2018-03-25T11:41:56.025Z,20.60
2018-03-25T11:44:23.584Z,17.53
2018-03-25T11:46:51.185Z,20.20
2018-03-25T11:49:19.501Z,18.97
2018-03-25T11:51:47.090Z,22.10
2018-03-25T11:54:14.644Z,18.03
2018-03-25T11:56:42.996Z,18.53
2018-03-25T11:59:10.540Z,16.67
2018-03-25T12:01:38.131Z,18.23
2018-03-25T12:04:05.692Z,21.77
2018-03-25T12:06:33.286Z,18.53
2018-03-25T12:09:00.835Z,17.27
2018-03-25T12:11:28.425Z,15.57
2018-03-25T12:13:56.730Z,17.17
2018-03-25T12:16:24.365Z,15.73
2018-03-25T12:18:51.939Z,13.93
2018-03-25T12:21:19.524Z,16.13
2018-03-25T12:23:47.073Z,15.53
2018-03-25T12:26:14.672Z,17.67
2018-03-25T12:28:42.295Z,14.20
2018-03-25T12:31:09.910Z,15.10
2018-03-25T12:33:38.237Z,17.20
2018-03-25T12:36:05.828Z,15.23
2018-03-25T12:38:33.376Z,13.00
2018-03-25T12:41:00.967Z,16.53
2018-03-25T12:43:29.269Z,15.17
2018-03-25T12:45:56.848Z,14.73
2018-03-25T12:48:24.425Z,14.43
2018-03-25T12:50:52.011Z,14.03
2018-03-25T12:53:19.547Z,13.00
2018-03-25T12:55:47.131Z,18.97
2018-03-25T12:58:15.446Z,16.17
2018-03-25T13:00:43.034Z,16.53
2018-03-25T13:03:10.586Z,15.93
2018-03-25T13:05:38.210Z,15.30
2018-03-25T13:08:06.517Z,17.50
2018-03-25T13:10:34.116Z,18.70
2018-03-25T13:13:01.667Z,15.37
2018-03-25T13:15:29.999Z,12.57
2018-03-25T13:17:57.561Z,15.53
2018-03-25T13:20:25.150Z,14.57
2018-03-25T13:22:52.700Z,12.50
2018-03-25T13:25:20.256Z,14.00
2018-03-25T13:27:47.930Z,13.40
2018-03-25T13:30:15.526Z,16.27
2018-03-25T13:32:43.086Z,14.60
2018-03-25T13:35:10.698Z,14.37
2018-03-25T13:37:38.239Z,16.73
2018-03-25T13:40:06.588Z,15.17
2018-03-25T13:42:34.124Z,12.83
2018-03-25T13:45:01.730Z,14.33
2018-03-25T13:47:30.045Z,12.83
2018-03-25T13:49:57.638Z,13.00
2018-03-25T13:52:25.183Z,18.07
2018-03-25T13:54:52.777Z,16.13
2018-03-25T13:57:21.092Z,16.83
2018-03-25T13:59:48.687Z,17.73
2018-03-25T14:02:16.329Z,18.90
2018-03-25T14:04:44.763Z,16.73
2018-03-25T14:07:13.190Z,16.13
2018-03-25T14:09:40.774Z,14.00
2018-03-25T14:12:08.324Z,16.60
2018-03-25T14:14:35.971Z,15.90
2018-03-25T14:17:03.517Z,16.60
2018-03-25T14:19:31.129Z,16.07
2018-03-25T14:21:58.678Z,15.93
2018-03-25T14:24:26.300Z,18.70
2018-03-25T14:26:53.932Z,15.20
2018-03-25T14:29:22.292Z,31.83
2018-03-25T14:31:49.867Z,20.30
2018-03-25T14:34:18.249Z,16.13
2018-03-25T14:36:46.557Z,17.70
2018-03-25T14:39:14.104Z,19.20
2018-03-25T14:41:41.710Z,18.67
2018-03-25T14:44:09.270Z,20.43
2018-03-25T14:46:36.878Z,18.10
2018-03-25T14:49:05.387Z,19.60
2018-03-25T14:51:32.931Z,18.10
2018-03-25T14:54:00.549Z,18.67
2018-03-25T14:56:28.157Z,16.30
2018-03-25T14:58:56.524Z,20.10
2018-03-25T15:01:24.887Z,24.03
2018-03-25T15:03:53.224Z,18.90
2018-03-25T15:06:20.820Z,17.73
2018-03-25T15:08:49.156Z,19.80
2018-03-25T15:11:16.755Z,20.90
2018-03-25T15:13:44.332Z,19.40
2018-03-25T15:16:12.697Z,17.90
2018-03-25T15:18:41.016Z,18.90
2018-03-25T15:21:08.615Z,16.77
2018-03-25T15:23:36.192Z,22.63
2018-03-25T15:26:03.795Z,18.10
2018-03-25T15:28:31.347Z,18.60
2018-03-25T15:30:58.940Z,20.03
2018-03-25T15:33:26.493Z,22.00
2018-03-25T15:35:54.087Z,17.80
2018-03-25T15:38:21.698Z,18.43
2018-03-25T15:40:50.025Z,20.27
2018-03-25T15:43:17.573Z,20.17
2018-03-25T15:45:45.163Z,18.17
2018-03-25T15:48:13.489Z,19.63
2018-03-25T15:50:41.274Z,17.63
2018-03-25T15:53:08.828Z,17.40
2018-03-25T15:55:36.478Z,19.50
2018-03-25T15:58:04.067Z,18.33
2018-03-25T16:00:31.659Z,19.50
2018-03-25T16:02:59.990Z,22.33
2018-03-25T16:05:27.581Z,18.40
2018-03-25T16:07:55.907Z,20.20
2018-03-25T16:10:23.497Z,18.97
2018-03-25T16:12:51.046Z,20.47
2018-03-25T16:15:18.649Z,19.70
2018-03-25T16:17:46.950Z,19.17
2018-03-25T16:20:14.554Z,17.80
2018-03-25T16:22:42.117Z,19.00
2018-03-25T16:25:09.714Z,21.33
2018-03-25T16:27:38.022Z,19.43
2018-03-25T16:30:05.615Z,20.40
2018-03-25T16:32:33.171Z,22.70
2018-03-25T16:35:00.769Z,26.90
2018-03-25T16:37:29.084Z,19.00
2018-03-25T16:39:56.672Z,22.10
2018-03-25T16:42:24.227Z,23.37
2018-03-25T16:44:51.820Z,22.83
2018-03-25T16:47:20.138Z,21.60
2018-03-25T16:49:47.750Z,19.63
2018-03-25T16:52:15.309Z,21.93
2018-03-25T16:54:42.926Z,22.87
2018-03-25T16:57:10.473Z,27.73
2018-03-25T16:59:38.071Z,26.37
2018-03-25T17:02:05.628Z,24.40
2018-03-25T17:04:34.736Z,23.10
2018-03-25T17:07:02.278Z,31.20
2018-03-25T17:09:29.864Z,25.33
2018-03-25T17:11:57.423Z,25.47
2018-03-25T17:14:25.014Z,25.43
2018-03-25T17:16:52.576Z,25.90
2018-03-25T17:19:20.164Z,26.90
2018-03-25T17:21:47.703Z,24.50
2018-03-25T17:24:15.299Z,28.53
2018-03-25T17:26:42.858Z,25.73
2018-03-25T17:29:10.443Z,24.30
2018-03-25T17:31:37.984Z,25.47
2018-03-25T17:34:05.531Z,29.20
2018-03-25T17:36:33.114Z,32.40
2018-03-25T17:39:00.663Z,26.17
2018-03-25T17:41:28.259Z,32.20
2018-03-25T17:43:56.591Z,24.13
2018-03-25T17:46:24.176Z,27.03
2018-03-25T17:48:53.233Z,26.03
2018-03-25T17:51:20.828Z,24.93
2018-03-25T17:53:48.373Z,26.37
2018-03-25T17:56:16.024Z,20.50
2018-03-25T17:58:43.608Z,27.30
2018-03-25T18:01:11.147Z,23.17
2018-03-25T18:03:38.683Z,28.13
2018-03-25T18:06:06.281Z,27.93
2018-03-25T18:08:33.832Z,24.30
2018-03-25T18:11:01.417Z,23.90
2018-03-25T18:13:29.731Z,23.20
2018-03-25T18:15:58.093Z,26.30
2018-03-25T18:18:26.412Z,28.20
2018-03-25T18:20:56.294Z,29.40
2018-03-25T18:23:22.369Z,23.63
2018-03-25T18:25:50.050Z,34.97
2018-03-25T18:28:17.588Z,28.73
2018-03-25T18:30:45.179Z,23.50
2018-03-25T18:33:12.716Z,26.07
2018-03-25T18:35:40.308Z,25.17
2018-03-25T18:38:08.621Z,59.80
2018-03-25T18:40:36.211Z,69.33
2018-03-25T18:43:03.759Z,45.07
2018-03-25T18:45:31.352Z,43.27
2018-03-25T18:47:58.892Z,42.33
2018-03-25T18:50:26.484Z,24.77
2018-03-25T18:52:54.021Z,27.77
2018-03-25T18:55:21.636Z,28.03
2018-03-25T18:57:49.187Z,33.70
2018-03-25T19:00:17.533Z,29.67
2018-03-25T19:02:45.072Z,28.40
2018-03-25T19:05:12.674Z,30.93
2018-03-25T19:07:40.984Z,29.00
2018-03-25T19:10:08.563Z,39.00
2018-03-25T19:12:36.106Z,33.17
2018-03-25T19:15:03.693Z,26.33
2018-03-25T19:17:31.241Z,38.93
2018-03-25T19:19:58.835Z,38.67
2018-03-25T19:22:26.400Z,33.37
2018-03-25T19:24:54.781Z,35.20
2018-03-25T19:27:22.343Z,31.77
2018-03-25T19:29:50.702Z,38.33
2018-03-25T19:32:18.317Z,36.70
2018-03-25T19:34:46.097Z,32.93
2018-03-25T19:37:13.640Z,36.07
2018-03-25T19:39:41.249Z,32.63
2018-03-25T19:42:08.793Z,31.70
2018-03-25T19:44:36.385Z,31.20
2018-03-25T19:47:03.951Z,30.60
2018-03-25T19:49:32.328Z,29.53
2018-03-25T19:52:00.904Z,31.07
2018-03-25T19:54:28.486Z,30.80
2018-03-25T19:56:56.803Z,29.43
2018-03-25T19:59:24.403Z,33.63
2018-03-25T20:01:51.948Z,38.37
2018-03-25T20:04:19.596Z,27.63
2018-03-25T20:06:47.101Z,28.80
2018-03-25T20:09:15.461Z,28.80
2018-03-25T20:11:42.992Z,30.80
2018-03-25T20:14:10.576Z,28.60
2018-03-25T20:16:38.903Z,30.40
2018-03-25T20:19:06.504Z,30.50
2018-03-25T20:21:34.054Z,27.60
2018-03-25T20:24:01.647Z,27.40
2018-03-25T20:26:29.963Z,30.17
2018-03-25T20:28:57.555Z,31.07
2018-03-25T20:31:25.107Z,31.23
2018-03-25T20:33:52.755Z,31.17
2018-03-25T20:36:20.299Z,28.50
2018-03-25T20:38:47.877Z,24.90
2018-03-25T20:41:15.444Z,31.87
2018-03-25T20:43:43.097Z,27.30
2018-03-25T20:46:10.645Z,31.87
2018-03-25T20:48:38.205Z,33.70
2018-03-25T20:51:05.752Z,33.10
2018-03-25T20:53:33.329Z,32.70
2018-03-25T20:56:00.877Z,29.03
2018-03-25T20:58:28.474Z,31.40
2018-03-25T21:00:56.026Z,34.10
2018-03-25T21:03:23.588Z,30.57
2018-03-25T21:05:51.163Z,29.00
2018-03-25T21:08:18.760Z,28.70
2018-03-25T21:10:47.072Z,28.67
2018-03-25T21:13:14.655Z,31.10
2018-03-25T21:15:42.211Z,29.20
2018-03-25T21:18:09.797Z,27.50
2018-03-25T21:20:37.363Z,29.17
2018-03-25T21:23:05.723Z,27.20
2018-03-25T21:25:33.264Z,29.20
2018-03-25T21:28:00.802Z,34.30
2018-03-25T21:30:28.388Z,29.43
2018-03-25T21:32:56.708Z,32.80
2018-03-25T21:35:25.051Z,26.97
2018-03-25T21:37:52.599Z,32.33
2018-03-25T21:40:20.176Z,32.43
2018-03-25T21:42:47.716Z,29.83
2018-03-25T21:45:15.268Z,28.63
2018-03-25T21:47:42.847Z,36.30
2018-03-25T21:50:10.388Z,30.10
2018-03-25T21:52:37.967Z,29.60
2018-03-25T21:55:05.521Z,29.17
2018-03-25T21:57:33.095Z,33.70
2018-03-25T22:00:00.631Z,34.03
2018-03-25T22:02:28.205Z,28.33
2018-03-25T22:04:55.752Z,30.27
2018-03-25T22:07:23.328Z,26.20
2018-03-25T22:09:50.889Z,27.77
2018-03-25T22:12:18.474Z,30.87
2018-03-25T22:14:46.838Z,31.50
2018-03-25T22:17:14.384Z,29.93
2018-03-25T22:19:41.946Z,32.10
2018-03-25T22:22:09.520Z,31.70
2018-03-25T22:24:37.101Z,30.40
2018-03-25T22:27:05.435Z,33.90
2018-03-25T22:29:33.016Z,28.13
2018-03-25T22:32:00.612Z,30.90
2018-03-25T22:34:28.933Z,32.10
2018-03-25T22:36:56.478Z,33.23
2018-03-25T22:39:24.052Z,30.80
2018-03-25T22:41:51.597Z,32.50
2018-03-25T22:44:19.175Z,32.23
2018-03-25T22:46:46.722Z,33.87
2018-03-25T22:49:14.292Z,43.03
2018-03-25T22:51:41.836Z,34.53
2018-03-25T22:54:09.411Z,40.33
2018-03-25T22:56:36.956Z,38.30
2018-03-25T22:59:04.523Z,40.30
2018-03-25T23:01:32.120Z,34.60
2018-03-25T23:03:59.667Z,40.73
2018-03-25T23:06:27.209Z,34.37
2018-03-25T23:08:54.798Z,37.90
2018-03-25T23:11:22.355Z,41.30
2018-03-25T23:13:49.932Z,34.27
2018-03-25T23:16:18.294Z,39.90
2018-03-25T23:18:45.868Z,32.77
2018-03-25T23:21:14.214Z,34.60
2018-03-25T23:23:41.793Z,44.33
2018-03-25T23:26:09.329Z,36.37
2018-03-25T23:28:36.911Z,37.37
2018-03-25T23:31:04.460Z,35.20
2018-03-25T23:33:32.029Z,37.97
2018-03-25T23:35:59.574Z,37.43
2018-03-25T23:38:27.117Z,44.70
2018-03-25T23:40:54.697Z,35.87
2018-03-25T23:43:22.244Z,39.70
2018-03-25T23:45:49.825Z,41.15
2018-03-25T23:48:17.407Z,31.23
2018-03-25T23:50:45.736Z,40.10
2018-03-25T23:53:13.323Z,34.70
2018-03-25T23:55:40.864Z,35.83
2018-03-25T23:58:08.416Z,38.43
